Nearby METAR Reports

KLNK - Lincoln, Nebraska, USA
Distance from station: WNW 8mi, 13km
Updated: Fri, 27-Jan-2023 7:54pm CST
Clear
Clear
 Wind from E
Wind: E 6 mph , 9 km/h
Temperature: 34°F , 1°C
Wind Chill: 29°F , -2°C
Dew Point: 25°F , -4°C
Humidity: 70%
Barometer: 29.98 inHg , 1015.2 hPa
Clouds: Clear
Visibility: 10 miles , 16 km
2023/01/28 01:54 KLNK 280154Z 10005KT 10SM CLR 01/M04 A2998 RMK AO2 SLP162 T00061039
KAHQ - Wahoo, Nebraska, USA
Distance from station: N 31mi, 49km
Updated: Fri, 27-Jan-2023 8:15pm CST
Clear
Clear
 Wind from ENE
Wind: ENE 6 mph , 9 km/h
Temperature: 28°F , -2°C
Wind Chill: 21°F , -6°C
Dew Point: 23°F , -5°C
Humidity: 80%
Barometer: 29.97 inHg , 1014.9 hPa
Clouds: Clear
Visibility: 10 miles , 16 km
2023/01/28 02:15 KAHQ 280215Z AUTO 06005KT 10SM CLR M02/M05 A2997 RMK AO2 T10211049
 
KBIE - Beatrice Municip, Nebraska, USA
Distance from station: S 36mi, 57km
Updated: Fri, 27-Jan-2023 8:15pm CST
Clear
Clear
 Wind from SE
Wind: SE 3 mph , 6 km/h
Temperature: 32°F , 0°C
Dew Point: 27°F , -3°C
Humidity: 80%
Barometer: 29.97 inHg , 1014.9 hPa
Clouds: Clear
Visibility: 10 miles , 16 km
2023/01/28 02:15 KBIE 280215Z AUTO 13003KT 10SM CLR 00/M03 A2997 RMK AO2 T00011031
KMLE - Omaha/Millard, Nebraska, USA
Distance from station: NE 39mi, 63km
Updated: Fri, 27-Jan-2023 8:15pm CST
Clear
Clear
 Wind from calm
Wind: Calm
Temperature: 30°F , -1°C
Dew Point: 23°F , -5°C
Humidity: 75%
Barometer: 29.99 inHg , 1015.6 hPa
Clouds: Clear
Visibility: 10 miles , 16 km
2023/01/28 02:15 KMLE 280215Z AUTO 00000KT 10SM CLR M01/M05 A2999 RMK AO2 T10141053
 
KPMV - Plattsmouth Muni, Nebraska, USA
Distance from station: ENE 39mi, 63km
Updated: Fri, 27-Jan-2023 8:15pm CST
Partly Cloudy
Partly Cloudy
 Wind from calm
Wind: Calm
Temperature: 30°F , -1°C
Dew Point: 23°F , -5°C
Humidity: 75%
Barometer: 29.99 inHg , 1015.6 hPa
Clouds: Partly Cloudy
Visibility: 10 miles , 16 km
Cloud details: Partly Cloudy 3200 ft
2023/01/28 02:15 KPMV 280215Z AUTO 00000KT 10SM SCT032 M01/M05 A2999 RMK AO2 T10121050
KAFK - Nebraska City, Nebraska, USA
Distance from station: ESE 43mi, 69km
Updated: Fri, 27-Jan-2023 8:15pm CST
Clear
Clear
 Wind from calm
Wind: Calm
Temperature: 32°F , 0°C
Dew Point: 25°F , -4°C
Humidity: 75%
Barometer: 30.00 inHg , 1015.9 hPa
Clouds: Clear
Visibility: 10 miles , 16 km
2023/01/28 02:15 KAFK 280215Z AUTO 00000KT 10SM CLR 00/M04 A3000 RMK AO2 T10031043
 
KOFF - Offutt Afb/Belle, Nebraska, USA
Distance from station: ENE 44mi, 70km
Updated: Fri, 27-Jan-2023 7:55pm CST
Clear
Clear
 Wind from NNE
Wind: NNE 8 mph , 13 km/h
Temperature: 30°F , -1°C
Wind Chill: 22°F , -6°C
Dew Point: 21°F , -6°C
Humidity: 69%
Barometer: 30.02 inHg , 1016.6 hPa
Clouds: Clear
Visibility: 10 miles , 16 km
2023/01/28 01:55 KOFF 280155Z AUTO 02007KT 10SM CLR M01/M06 A3002 RMK AO2 SLP179 T10091059 PWINO PNO FZRANO TSNO CHINO RWY31 $
KFET - Fremont Muni Arp, Nebraska, USA
Distance from station: N 46mi, 74km
Updated: Fri, 27-Jan-2023 8:15pm CST
Clear
Clear
 Wind from E
Wind: E 6 mph , 9 km/h
Temperature: 27°F , -3°C
Wind Chill: 20°F , -7°C
Dew Point: 21°F , -6°C
Humidity: 80%
Barometer: 29.99 inHg , 1015.6 hPa
Clouds: Clear
Visibility: 10 miles , 16 km
2023/01/28 02:15 KFET 280215Z AUTO 08005KT 10SM CLR M03/M06 A2999 RMK AO2 T10291058
 
KBTA - Blair Muni, Nebraska, USA
Distance from station: NNE 51mi, 82km
Updated: Fri, 27-Jan-2023 8:15pm CST
Clear
Clear
 Wind from NE
Wind: NE 8 mph , 13 km/h
Temperature: 27°F , -3°C
Wind Chill: 19°F , -7°C
Dew Point: 21°F , -6°C
Humidity: 80%
Barometer: 29.97 inHg , 1014.9 hPa
Clouds: Clear
Visibility: 10 miles , 16 km
2023/01/28 02:15 KBTA 280215Z AUTO 04007KT 10SM CLR M03/M06 A2997 RMK AO2 T10321064
KJYR - York, Nebraska, USA
Distance from station: W 52mi, 84km
Updated: Fri, 27-Jan-2023 8:15pm CST
Overcast
Overcast
 Wind from SSE
Wind: SSE 6 mph , 9 km/h
Temperature: 32°F , 0°C
Wind Chill: 26°F , -3°C
Dew Point: 27°F , -3°C
Humidity: 80%
Barometer: 29.94 inHg , 1013.9 hPa
Clouds: Overcast
Visibility: 10 miles , 16 km
Cloud details: Overcast 11000 ft
2023/01/28 02:15 KJYR 280215Z AUTO 15005KT 10SM OVC110 M00/M03 A2994 RMK AO2
 
KOMA - Omaha/Eppley, Nebraska, USA
Distance from station: NE 53mi, 85km
Updated: Fri, 27-Jan-2023 7:52pm CST
Partly Cloudy
Partly Cloudy
 Wind from N
Wind: N 12 mph , 19 km/h
Temperature: 28°F , -2°C
Wind Chill: 18°F , -8°C
Dew Point: 21°F , -6°C
Humidity: 74%
Barometer: 30.00 inHg , 1015.9 hPa
Clouds: Partly Cloudy
Visibility: 10 miles , 16 km
Cloud details: Partly Cloudy 25000 ft
2023/01/28 01:52 KOMA 280152Z 01010KT 10SM SCT250 M02/M06 A3000 RMK AO2 SLP166 T10221061
KOLU - Columbus Muni, Nebraska, USA
Distance from station: NW 58mi, 93km
Updated: Fri, 27-Jan-2023 7:56pm CST
Mostly Cloudy
Mostly Cloudy
 Wind from E
Wind: E 13 mph , 20 km/h
Temperature: 28°F , -2°C
Wind Chill: 17°F , -8°C
Dew Point: 27°F , -3°C
Humidity: 93%
Barometer: 29.96 inHg , 1014.6 hPa
Clouds: Mostly Cloudy
Visibility: 10 miles , 16 km
Cloud details: Mostly Cloudy 12000 ft
2023/01/28 01:56 KOLU 280156Z AUTO 08011KT 10SM BKN120 M02/M03 A2996 RMK AO2 SLP161 T10221033 FZRANO